Time,TemperatureF,DewpointF,PressureIn,WindDirection,WindDirectionDegrees,WindSpeedMPH,WindSpeedGustMPH,Humidity,HourlyPrecipIn,Conditions,Clouds,dailyrainin,SoftwareType,DateUTC
2013-05-20 00:03:00,42.3,28.2,30.11,SSW,196,0.0,4.0,57,0.00,,,0.00,WeatherTracker,2013-05-20 07:03:00,
2013-05-20 00:08:00,42.0,27.0,30.12,SSW,197,2.0,3.0,55,0.00,,,0.00,WeatherTracker,2013-05-20 07:08:00,
2013-05-20 00:13:00,42.5,28.8,30.12,SSW,196,0.0,4.0,58,0.00,,,0.00,WeatherTracker,2013-05-20 07:13:00,
2013-05-20 00:18:00,42.9,26.5,30.12,North,360,1.0,4.0,52,0.00,,,0.00,WeatherTracker,2013-05-20 07:18:00,
2013-05-20 00:23:00,42.9,27.9,30.12,North,360,0.0,4.0,55,0.00,,,0.00,WeatherTracker,2013-05-20 07:23:00,
2013-05-20 00:28:00,42.6,27.6,30.12,SSW,197,2.0,0.0,55,0.00,,,0.00,WeatherTracker,2013-05-20 07:28:00,
2013-05-20 00:33:00,41.9,29.0,30.12,SSW,196,0.0,2.0,60,0.00,,,0.00,WeatherTracker,2013-05-20 07:33:00,
2013-05-20 00:39:00,41.6,29.2,30.12,SSW,196,0.0,2.0,61,0.00,,,0.00,WeatherTracker,2013-05-20 07:39:00,
2013-05-20 00:44:00,41.7,25.8,30.12,SSW,196,2.0,2.0,53,0.00,,,0.00,WeatherTracker,2013-05-20 07:44:00,
2013-05-20 00:49:00,42.4,26.5,30.12,SSW,197,3.0,3.0,53,0.00,,,0.00,WeatherTracker,2013-05-20 07:49:00,
2013-05-20 00:54:00,43.1,28.0,30.12,SSW,197,0.0,4.0,55,0.00,,,0.00,WeatherTracker,2013-05-20 07:54:00,
2013-05-20 00:59:00,43.1,27.1,30.12,SSW,199,2.0,4.0,53,0.00,,,0.00,WeatherTracker,2013-05-20 07:59:00,
2013-05-20 01:04:00,43.4,27.0,30.12,SSW,200,2.0,4.0,52,0.00,,,0.00,WeatherTracker,2013-05-20 08:04:00,
2013-05-20 01:09:00,43.5,26.6,30.12,SSW,200,1.0,5.0,51,0.00,,,0.00,WeatherTracker,2013-05-20 08:09:00,
2013-05-20 01:14:00,43.4,26.0,30.12,SSW,200,3.0,5.0,50,0.00,,,0.00,WeatherTracker,2013-05-20 08:14:00,
2013-05-20 01:19:00,43.6,27.1,30.12,SSW,200,1.0,4.0,52,0.00,,,0.00,WeatherTracker,2013-05-20 08:19:00,
2013-05-20 01:24:00,43.1,28.0,30.12,North,360,3.0,3.0,55,0.00,,,0.00,WeatherTracker,2013-05-20 08:24:00,
2013-05-20 01:29:00,42.0,29.1,30.13,SSW,196,1.0,6.0,60,0.00,,,0.00,WeatherTracker,2013-05-20 08:29:00,
2013-05-20 01:34:00,41.1,27.9,30.12,SSW,196,0.0,6.0,59,0.00,,,0.00,WeatherTracker,2013-05-20 08:34:00,
2013-05-20 01:39:00,41.0,27.4,30.13,North,360,2.0,2.0,58,0.00,,,0.00,WeatherTracker,2013-05-20 08:39:00,
2013-05-20 01:44:00,41.1,27.0,30.13,North,360,3.0,3.0,57,0.00,,,0.00,WeatherTracker,2013-05-20 08:44:00,
2013-05-20 01:49:00,41.4,26.9,30.13,SSW,195,3.0,3.0,56,0.00,,,0.00,WeatherTracker,2013-05-20 08:49:00,
2013-05-20 01:54:00,41.8,26.8,30.13,SSW,192,3.0,5.0,55,0.00,,,0.00,WeatherTracker,2013-05-20 08:54:00,
2013-05-20 01:59:00,40.7,29.5,30.12,SSW,192,3.0,6.0,64,0.00,,,0.00,WeatherTracker,2013-05-20 08:59:00,
2013-05-20 02:04:00,40.1,28.1,30.13,North,360,1.0,6.0,62,0.00,,,0.00,WeatherTracker,2013-05-20 09:04:00,
2013-05-20 02:09:00,40.0,28.4,30.12,South,191,1.0,5.0,63,0.00,,,0.00,WeatherTracker,2013-05-20 09:09:00,
2013-05-20 02:14:00,39.9,27.2,30.12,North,360,3.0,5.0,60,0.00,,,0.00,WeatherTracker,2013-05-20 09:14:00,
2013-05-20 02:19:00,38.6,29.0,30.12,South,190,0.0,5.0,68,0.00,,,0.00,WeatherTracker,2013-05-20 09:19:00,
2013-05-20 02:24:00,37.7,27.7,30.12,South,189,5.0,5.0,67,0.00,,,0.00,WeatherTracker,2013-05-20 09:24:00,
2013-05-20 02:29:00,37.4,27.8,30.12,South,188,3.0,6.0,68,0.00,,,0.00,WeatherTracker,2013-05-20 09:29:00,
2013-05-20 02:35:00,37.4,28.2,30.12,South,188,3.0,5.0,69,0.00,,,0.00,WeatherTracker,2013-05-20 09:35:00,
2013-05-20 02:40:00,37.1,28.9,30.12,North,360,3.0,5.0,72,0.00,,,0.00,WeatherTracker,2013-05-20 09:40:00,
2013-05-20 02:45:00,36.6,28.8,30.12,South,188,2.0,5.0,73,0.00,,,0.00,WeatherTracker,2013-05-20 09:45:00,
2013-05-20 02:50:00,36.0,27.9,30.12,SSE,154,4.0,6.0,72,0.00,,,0.00,WeatherTracker,2013-05-20 09:50:00,
2013-05-20 02:55:00,36.2,27.0,30.12,North,360,3.0,6.0,69,0.00,,,0.00,WeatherTracker,2013-05-20 09:55:00,
2013-05-20 03:00:00,36.6,26.7,30.13,SSE,156,2.0,4.0,67,0.00,,,0.00,WeatherTracker,2013-05-20 10:00:00,
2013-05-20 03:05:00,36.8,26.9,30.13,North,360,4.0,4.0,67,0.00,,,0.00,WeatherTracker,2013-05-20 10:05:00,
2013-05-20 03:10:00,37.1,27.9,30.12,SSE,150,1.0,5.0,69,0.00,,,0.00,WeatherTracker,2013-05-20 10:10:00,
2013-05-20 03:15:00,36.4,27.9,30.12,North,360,2.0,5.0,71,0.00,,,0.00,WeatherTracker,2013-05-20 10:15:00,
2013-05-20 03:20:00,36.0,27.9,30.13,SSE,150,3.0,4.0,72,0.00,,,0.00,WeatherTracker,2013-05-20 10:20:00,
2013-05-20 03:25:00,35.8,27.7,30.13,SSE,149,3.0,4.0,72,0.00,,,0.00,WeatherTracker,2013-05-20 10:25:00,
2013-05-20 03:30:00,35.9,27.8,30.13,SSE,149,2.0,5.0,72,0.00,,,0.00,WeatherTracker,2013-05-20 10:30:00,
2013-05-20 03:35:00,35.8,28.3,30.13,SSE,149,3.0,5.0,74,0.00,,,0.00,WeatherTracker,2013-05-20 10:35:00,
2013-05-20 03:40:00,35.2,28.1,30.13,SSE,149,2.0,4.0,75,0.00,,,0.00,WeatherTracker,2013-05-20 10:40:00,
2013-05-20 03:45:00,35.2,27.8,30.13,SSE,148,4.0,4.0,74,0.00,,,0.00,WeatherTracker,2013-05-20 10:45:00,
2013-05-20 03:50:00,35.5,27.4,30.13,SSE,149,2.0,5.0,72,0.00,,,0.00,WeatherTracker,2013-05-20 10:50:00,
2013-05-20 03:55:00,35.8,26.3,30.13,SSE,148,2.0,5.0,68,0.00,,,0.00,WeatherTracker,2013-05-20 10:55:00,
2013-05-20 04:00:00,35.9,27.4,30.13,SSE,148,4.0,5.0,71,0.00,,,0.00,WeatherTracker,2013-05-20 11:00:00,
2013-05-20 04:05:00,35.9,26.7,30.13,SSE,148,3.0,5.0,69,0.00,,,0.00,WeatherTracker,2013-05-20 11:05:00,
2013-05-20 04:10:00,36.6,26.3,30.14,SSE,148,2.0,4.0,66,0.00,,,0.00,WeatherTracker,2013-05-20 11:10:00,
2013-05-20 04:15:00,36.9,25.9,30.14,SSE,148,0.0,4.0,64,0.00,,,0.00,WeatherTracker,2013-05-20 11:15:00,
2013-05-20 04:20:00,36.8,27.9,30.14,SSE,148,0.0,4.0,70,0.00,,,0.00,WeatherTracker,2013-05-20 11:20:00,
2013-05-20 04:25:00,36.4,27.9,30.14,SSE,148,0.0,1.0,71,0.00,,,0.00,WeatherTracker,2013-05-20 11:25:00,
2013-05-20 04:31:00,35.9,27.4,30.14,SSE,148,2.0,2.0,71,0.00,,,0.00,WeatherTracker,2013-05-20 11:31:00,
2013-05-20 04:36:00,35.8,26.6,30.14,SSE,148,1.0,3.0,69,0.00,,,0.00,WeatherTracker,2013-05-20 11:36:00,
2013-05-20 04:41:00,35.6,26.4,30.14,SSE,148,0.0,3.0,69,0.00,,,0.00,WeatherTracker,2013-05-20 11:41:00,
2013-05-20 04:46:00,35.4,26.3,30.14,SSE,148,0.0,3.0,69,0.00,,,0.00,WeatherTracker,2013-05-20 11:46:00,
2013-05-20 04:51:00,35.2,26.1,30.14,SSE,148,0.0,0.0,69,0.00,,,0.00,WeatherTracker,2013-05-20 11:51:00,
2013-05-20 04:56:00,35.2,26.8,30.14,SSE,148,0.0,0.0,71,0.00,,,0.00,WeatherTracker,2013-05-20 11:56:00,
2013-05-20 05:01:00,35.0,26.9,30.14,SSE,148,0.0,0.0,72,0.00,,,0.00,WeatherTracker,2013-05-20 12:01:00,
2013-05-20 05:06:00,34.8,27.0,30.14,SSE,148,0.0,0.0,73,0.00,,,0.00,WeatherTracker,2013-05-20 12:06:00,
2013-05-20 05:11:00,34.6,27.5,30.15,SSE,148,0.0,0.0,75,0.00,,,0.00,WeatherTracker,2013-05-20 12:11:00,
2013-05-20 05:16:00,34.4,27.3,30.15,SSE,148,0.0,0.0,75,0.00,,,0.00,WeatherTracker,2013-05-20 12:16:00,
2013-05-20 05:21:00,34.2,28.1,30.15,SSE,148,0.0,0.0,78,0.00,,,0.00,WeatherTracker,2013-05-20 12:21:00,
2013-05-20 05:26:00,33.8,28.3,30.15,SSE,148,0.0,2.0,80,0.00,,,0.00,WeatherTracker,2013-05-20 12:26:00,
2013-05-20 05:31:00,33.5,28.0,30.16,SSE,148,0.0,2.0,80,0.00,,,0.00,WeatherTracker,2013-05-20 12:31:00,
2013-05-20 05:36:00,33.2,27.1,30.16,SSE,148,0.0,0.0,78,0.00,,,0.00,WeatherTracker,2013-05-20 12:36:00,
2013-05-20 05:41:00,33.2,26.8,30.16,SSE,148,0.0,0.0,77,0.00,,,0.00,WeatherTracker,2013-05-20 12:41:00,
2013-05-20 05:46:00,33.4,26.7,30.16,SSE,149,2.0,0.0,76,0.00,,,0.00,WeatherTracker,2013-05-20 12:46:00,
2013-05-20 05:51:00,33.4,26.0,30.16,SSE,150,1.0,2.0,74,0.00,,,0.00,WeatherTracker,2013-05-20 12:51:00,
2013-05-20 05:56:00,33.5,27.1,30.16,North,360,0.0,2.0,77,0.00,,,0.00,WeatherTracker,2013-05-20 12:56:00,
2013-05-20 06:01:00,33.7,28.2,30.16,SSE,148,0.0,1.0,80,0.00,,,0.00,WeatherTracker,2013-05-20 13:01:00,
2013-05-20 06:06:00,33.7,27.9,30.16,SSE,148,0.0,1.0,79,0.00,,,0.00,WeatherTracker,2013-05-20 13:06:00,
2013-05-20 06:11:00,33.8,28.0,30.16,SSE,148,0.0,1.0,79,0.00,,,0.00,WeatherTracker,2013-05-20 13:11:00,
2013-05-20 06:16:00,34.3,28.5,30.16,SSE,148,0.0,0.0,79,0.00,,,0.00,WeatherTracker,2013-05-20 13:16:00,
2013-05-20 06:21:00,34.6,28.5,30.16,SSE,148,0.0,1.0,78,0.00,,,0.00,WeatherTracker,2013-05-20 13:21:00,
2013-05-20 06:26:00,35.1,29.3,30.16,SSE,148,0.0,1.0,79,0.00,,,0.00,WeatherTracker,2013-05-20 13:26:00,
2013-05-20 06:31:00,35.3,29.8,30.16,SSE,148,0.0,0.0,80,0.00,,,0.00,WeatherTracker,2013-05-20 13:31:00,
2013-05-20 06:36:00,35.7,28.9,30.16,SSE,148,0.0,0.0,76,0.00,,,0.00,WeatherTracker,2013-05-20 13:36:00,
2013-05-20 06:41:00,36.0,28.9,30.17,SSE,148,0.0,0.0,75,0.00,,,0.00,WeatherTracker,2013-05-20 13:41:00,
2013-05-20 06:47:00,36.6,30.1,30.17,SSE,148,1.0,0.0,77,0.00,,,0.00,WeatherTracker,2013-05-20 13:47:00,
2013-05-20 06:52:00,37.2,31.0,30.17,SSE,148,0.0,2.0,78,0.00,,,0.00,WeatherTracker,2013-05-20 13:52:00,
2013-05-20 06:57:00,37.5,31.3,30.17,SSE,148,0.0,2.0,78,0.00,,,0.00,WeatherTracker,2013-05-20 13:57:00,
2013-05-20 07:02:00,38.1,31.9,30.17,SSE,148,0.0,1.0,78,0.00,,,0.00,WeatherTracker,2013-05-20 14:02:00,
2013-05-20 07:07:00,38.9,32.0,30.17,SSE,148,2.0,2.0,76,0.00,,,0.00,WeatherTracker,2013-05-20 14:07:00,
2013-05-20 07:12:00,39.8,30.8,30.17,SSE,149,1.0,3.0,70,0.00,,,0.00,WeatherTracker,2013-05-20 14:12:00,
2013-05-20 07:17:00,40.5,31.1,30.17,SSE,148,1.0,3.0,69,0.00,,,0.00,WeatherTracker,2013-05-20 14:17:00,
2013-05-20 07:22:00,40.4,31.4,30.17,SSE,149,0.0,2.0,70,0.00,,,0.00,WeatherTracker,2013-05-20 14:22:00,
2013-05-20 07:27:00,40.9,31.9,30.17,SSE,148,0.0,2.0,70,0.00,,,0.00,WeatherTracker,2013-05-20 14:27:00,
2013-05-20 07:32:00,41.9,32.1,30.17,SSE,148,0.0,0.0,68,0.00,,,0.00,WeatherTracker,2013-05-20 14:32:00,
2013-05-20 07:37:00,42.4,32.2,30.17,SSE,148,0.0,1.0,67,0.00,,,0.00,WeatherTracker,2013-05-20 14:37:00,
2013-05-20 07:42:00,43.1,32.5,30.17,SSE,148,0.0,1.0,66,0.00,,,0.00,WeatherTracker,2013-05-20 14:42:00,
2013-05-20 07:47:00,44.4,33.0,30.17,SSE,150,0.0,1.0,64,0.00,,,0.00,WeatherTracker,2013-05-20 14:47:00,
2013-05-20 07:52:00,44.8,32.6,30.17,SSE,148,2.0,3.0,62,0.00,,,0.00,WeatherTracker,2013-05-20 14:52:00,
2013-05-20 07:57:00,44.7,33.3,30.17,North,360,1.0,3.0,64,0.00,,,0.00,WeatherTracker,2013-05-20 14:57:00,
2013-05-20 08:02:00,45.0,33.2,30.17,North,360,1.0,3.0,63,0.00,,,0.00,WeatherTracker,2013-05-20 15:02:00,
2013-05-20 08:07:00,45.7,33.4,30.16,SSE,150,2.0,4.0,62,0.00,,,0.00,WeatherTracker,2013-05-20 15:07:00,
2013-05-20 08:12:00,46.8,33.7,30.17,SSE,147,2.0,4.0,60,0.00,,,0.00,WeatherTracker,2013-05-20 15:12:00,
2013-05-20 08:17:00,47.9,33.8,30.16,SSE,148,3.0,3.0,58,0.00,,,0.00,WeatherTracker,2013-05-20 15:17:00,
2013-05-20 08:23:00,48.7,35.9,30.16,SSE,148,3.0,4.0,61,0.00,,,0.00,WeatherTracker,2013-05-20 15:23:00,
2013-05-20 08:28:00,49.6,33.6,30.16,SE,144,2.0,4.0,54,0.00,,,0.00,WeatherTracker,2013-05-20 15:28:00,
2013-05-20 08:33:00,50.6,32.7,30.16,SSE,148,2.0,4.0,50,0.00,,,0.00,WeatherTracker,2013-05-20 15:33:00,
2013-05-20 08:38:00,51.2,32.2,30.16,SSE,151,2.0,4.0,48,0.00,,,0.00,WeatherTracker,2013-05-20 15:38:00,
2013-05-20 08:43:00,51.8,31.1,30.16,North,360,3.0,4.0,45,0.00,,,0.00,WeatherTracker,2013-05-20 15:43:00,
2013-05-20 08:48:00,52.1,30.3,30.16,North,360,1.0,3.0,43,0.00,,,0.00,WeatherTracker,2013-05-20 15:48:00,
2013-05-20 08:53:00,52.6,31.9,30.16,WSW,254,3.0,4.0,45,0.00,,,0.00,WeatherTracker,2013-05-20 15:53:00,
2013-05-20 08:58:00,52.9,33.7,30.16,NW,324,3.0,4.0,48,0.00,,,0.00,WeatherTracker,2013-05-20 15:58:00,
2013-05-20 09:03:00,52.9,31.0,30.16,NNW,327,4.0,6.0,43,0.00,,,0.00,WeatherTracker,2013-05-20 16:03:00,
2013-05-20 09:08:00,53.2,33.0,30.15,North,9,2.0,6.0,46,0.00,,,0.00,WeatherTracker,2013-05-20 16:08:00,
2013-05-20 09:13:00,53.6,34.4,30.15,North,350,6.0,6.0,48,0.00,,,0.00,WeatherTracker,2013-05-20 16:13:00,
2013-05-20 09:18:00,53.8,32.4,30.15,North,351,3.0,6.0,44,0.00,,,0.00,WeatherTracker,2013-05-20 16:18:00,
2013-05-20 09:24:00,54.0,33.1,30.15,North,360,3.0,6.0,45,0.00,,,0.00,WeatherTracker,2013-05-20 16:24:00,
2013-05-20 09:29:00,54.7,33.2,30.15,NNE,20,5.0,5.0,44,0.00,,,0.00,WeatherTracker,2013-05-20 16:29:00,
2013-05-20 09:34:00,55.0,33.5,30.14,NNE,21,4.0,5.0,44,0.00,,,0.00,WeatherTracker,2013-05-20 16:34:00,
2013-05-20 09:39:00,55.5,33.9,30.14,NNE,24,3.0,5.0,44,0.00,,,0.00,WeatherTracker,2013-05-20 16:39:00,
2013-05-20 09:44:00,56.3,36.9,30.14,NNE,30,5.0,6.0,48,0.00,,,0.00,WeatherTracker,2013-05-20 16:44:00,
2013-05-20 09:49:00,56.2,30.9,30.14,NE,51,2.0,6.0,38,0.00,,,0.00,WeatherTracker,2013-05-20 16:49:00,
2013-05-20 09:54:00,56.3,31.0,30.14,NE,50,4.0,6.0,38,0.00,,,0.00,WeatherTracker,2013-05-20 16:54:00,
2013-05-20 09:59:00,56.8,34.0,30.13,NNE,25,2.0,6.0,42,0.00,,,0.00,WeatherTracker,2013-05-20 16:59:00,
2013-05-20 10:04:00,57.1,32.4,30.13,NNE,24,2.0,5.0,39,0.00,,,0.00,WeatherTracker,2013-05-20 17:04:00,
2013-05-20 10:09:00,57.5,32.1,30.13,NNE,24,3.0,5.0,38,0.00,,,0.00,WeatherTracker,2013-05-20 17:09:00,
2013-05-20 10:14:00,57.4,32.0,30.12,NE,35,0.0,5.0,38,0.00,,,0.00,WeatherTracker,2013-05-20 17:14:00,
2013-05-20 10:19:00,57.4,31.3,30.12,NNE,30,5.0,5.0,37,0.00,,,0.00,WeatherTracker,2013-05-20 17:19:00,
2013-05-20 10:24:00,57.8,32.4,30.12,NNE,33,2.0,5.0,38,0.00,,,0.00,WeatherTracker,2013-05-20 17:24:00,
2013-05-20 10:29:00,58.2,31.4,30.12,North,360,4.0,5.0,36,0.00,,,0.00,WeatherTracker,2013-05-20 17:29:00,
2013-05-20 10:34:00,58.3,32.8,30.11,NNW,329,3.0,5.0,38,0.00,,,0.00,WeatherTracker,2013-05-20 17:34:00,
2013-05-20 10:39:00,58.6,33.7,30.11,NW,326,4.0,6.0,39,0.00,,,0.00,WeatherTracker,2013-05-20 17:39:00,
2013-05-20 10:44:00,58.8,31.9,30.11,NNW,334,5.0,6.0,36,0.00,,,0.00,WeatherTracker,2013-05-20 17:44:00,
2013-05-20 10:49:00,58.8,32.6,30.11,NNW,333,4.0,9.0,37,0.00,,,0.00,WeatherTracker,2013-05-20 17:49:00,
2013-05-20 10:54:00,59.0,33.4,30.11,NNW,333,2.0,9.0,38,0.00,,,0.00,WeatherTracker,2013-05-20 17:54:00,
2013-05-20 10:59:00,59.4,34.4,30.11,NNE,12,4.0,6.0,39,0.00,,,0.00,WeatherTracker,2013-05-20 17:59:00,
2013-05-20 11:04:00,59.4,32.4,30.11,NNW,332,5.0,7.0,36,0.00,,,0.00,WeatherTracker,2013-05-20 18:04:00,
2013-05-20 11:09:00,59.7,32.7,30.11,North,350,4.0,10.0,36,0.00,,,0.00,WeatherTracker,2013-05-20 18:09:00,
2013-05-20 11:14:00,59.8,34.1,30.11,NNW,336,1.0,10.0,38,0.00,,,0.00,WeatherTracker,2013-05-20 18:14:00,
2013-05-20 11:19:00,60.2,32.4,30.11,NNW,330,5.0,7.0,35,0.00,,,0.00,WeatherTracker,2013-05-20 18:19:00,
2013-05-20 11:24:00,60.3,33.2,30.10,NNW,336,4.0,7.0,36,0.00,,,0.00,WeatherTracker,2013-05-20 18:24:00,
2013-05-20 11:29:00,60.5,34.1,30.10,North,360,5.0,9.0,37,0.00,,,0.00,WeatherTracker,2013-05-20 18:29:00,
2013-05-20 11:34:00,60.8,32.3,30.10,NNW,346,3.0,9.0,34,0.00,,,0.00,WeatherTracker,2013-05-20 18:34:00,
2013-05-20 11:39:00,60.7,32.9,30.11,West,273,4.0,7.0,35,0.00,,,0.00,WeatherTracker,2013-05-20 18:39:00,
2013-05-20 11:45:00,61.1,33.2,30.10,NNW,329,9.0,9.0,35,0.00,,,0.00,WeatherTracker,2013-05-20 18:45:00,
2013-05-20 11:50:00,61.3,31.2,30.10,NNW,329,4.0,9.0,32,0.00,,,0.00,WeatherTracker,2013-05-20 18:50:00,
2013-05-20 11:55:00,61.3,34.1,30.10,NNW,331,1.0,9.0,36,0.00,,,0.00,WeatherTracker,2013-05-20 18:55:00,
2013-05-20 12:00:00,61.7,37.1,30.10,NE,42,3.0,9.0,40,0.00,,,0.00,WeatherTracker,2013-05-20 19:00:00,
2013-05-20 12:05:00,63.8,36.3,30.09,WSW,257,5.0,9.0,36,0.00,,,0.00,WeatherTracker,2013-05-20 19:05:00,
2013-05-20 12:10:00,64.1,37.3,30.09,WSW,256,7.0,10.0,37,0.00,,,0.00,WeatherTracker,2013-05-20 19:10:00,
2013-05-20 12:15:00,64.5,34.8,30.09,WSW,254,6.0,10.0,33,0.00,,,0.00,WeatherTracker,2013-05-20 19:15:00,
2013-05-20 12:20:00,64.7,36.4,30.08,West,279,5.0,9.0,35,0.00,,,0.00,WeatherTracker,2013-05-20 19:20:00,
2013-05-20 12:25:00,64.6,34.8,30.08,WNW,287,1.0,10.0,33,0.00,,,0.00,WeatherTracker,2013-05-20 19:25:00,
2013-05-20 12:30:00,65.4,34.0,30.08,West,273,7.0,12.0,31,0.00,,,0.00,WeatherTracker,2013-05-20 19:30:00,
2013-05-20 12:35:00,65.2,33.8,30.07,WNW,290,2.0,12.0,31,0.00,,,0.00,WeatherTracker,2013-05-20 19:35:00,
2013-05-20 12:40:00,65.2,34.6,30.07,SW,236,3.0,12.0,32,0.00,,,0.00,WeatherTracker,2013-05-20 19:40:00,
2013-05-20 12:45:00,65.1,33.7,30.07,West,260,10.0,10.0,31,0.00,,,0.00,WeatherTracker,2013-05-20 19:45:00,
2013-05-20 12:50:00,65.3,33.9,30.07,West,269,6.0,10.0,31,0.00,,,0.00,WeatherTracker,2013-05-20 19:50:00,
2013-05-20 12:55:00,65.7,36.6,30.07,SW,214,6.0,10.0,34,0.00,,,0.00,WeatherTracker,2013-05-20 19:55:00,
2013-05-20 13:00:00,65.9,34.4,30.06,West,265,9.0,11.0,31,0.00,,,0.00,WeatherTracker,2013-05-20 20:00:00,
2013-05-20 13:05:00,65.8,35.1,30.06,WSW,248,5.0,12.0,32,0.00,,,0.00,WeatherTracker,2013-05-20 20:05:00,
2013-05-20 13:10:00,66.3,34.8,30.06,SSW,209,6.0,12.0,31,0.00,,,0.00,WeatherTracker,2013-05-20 20:10:00,
2013-05-20 13:15:00,66.2,35.5,30.06,SW,215,4.0,12.0,32,0.00,,,0.00,WeatherTracker,2013-05-20 20:15:00,
2013-05-20 13:21:00,66.7,34.3,30.06,SSW,213,5.0,12.0,30,0.00,,,0.00,WeatherTracker,2013-05-20 20:21:00,
2013-05-20 13:26:00,66.6,34.2,30.06,WSW,244,0.0,11.0,30,0.00,,,0.00,WeatherTracker,2013-05-20 20:26:00,
2013-05-20 13:31:00,66.7,36.7,30.06,NW,309,3.0,11.0,33,0.00,,,0.00,WeatherTracker,2013-05-20 20:31:00,
2013-05-20 13:36:00,67.5,35.8,30.05,WNW,294,3.0,10.0,31,0.00,,,0.00,WeatherTracker,2013-05-20 20:36:00,
2013-05-20 13:41:00,68.0,35.4,30.05,West,272,3.0,10.0,30,0.00,,,0.00,WeatherTracker,2013-05-20 20:41:00,
2013-05-20 13:46:00,67.5,34.1,30.05,WNW,290,1.0,12.0,29,0.00,,,0.00,WeatherTracker,2013-05-20 20:46:00,
2013-05-20 13:51:00,68.5,35.8,30.05,NE,34,3.0,12.0,30,0.00,,,0.00,WeatherTracker,2013-05-20 20:51:00,
2013-05-20 13:56:00,69.8,36.1,30.05,West,266,5.0,9.0,29,0.00,,,0.00,WeatherTracker,2013-05-20 20:56:00,
2013-05-20 14:01:00,69.9,38.7,30.05,WNW,291,4.0,9.0,32,0.00,,,0.00,WeatherTracker,2013-05-20 21:01:00,
2013-05-20 14:06:00,70.3,35.6,30.04,NW,316,4.0,8.0,28,0.00,,,0.00,WeatherTracker,2013-05-20 21:06:00,
2013-05-20 14:11:00,70.3,35.6,30.04,WNW,284,3.0,6.0,28,0.00,,,0.00,WeatherTracker,2013-05-20 21:11:00,
2013-05-20 14:16:00,70.0,36.3,30.03,WSW,243,1.0,7.0,29,0.00,,,0.00,WeatherTracker,2013-05-20 21:16:00,
2013-05-20 14:21:00,70.4,34.8,30.03,NW,326,0.0,7.0,27,0.00,,,0.00,WeatherTracker,2013-05-20 21:21:00,
2013-05-20 14:26:00,71.0,34.4,30.03,West,281,1.0,6.0,26,0.00,,,0.00,WeatherTracker,2013-05-20 21:26:00,
2013-05-20 14:31:00,71.9,37.0,30.02,WNW,296,2.0,5.0,28,0.00,,,0.00,WeatherTracker,2013-05-20 21:31:00,
2013-05-20 14:36:00,72.8,34.9,30.02,NNW,342,3.0,4.0,25,0.00,,,0.00,WeatherTracker,2013-05-20 21:36:00,
2013-05-20 14:41:00,73.0,36.1,30.02,NNW,341,2.0,4.0,26,0.00,,,0.00,WeatherTracker,2013-05-20 21:41:00,
2013-05-20 14:46:00,73.2,34.2,30.01,NW,304,1.0,5.0,24,0.00,,,0.00,WeatherTracker,2013-05-20 21:46:00,
2013-05-20 14:51:00,72.9,36.9,30.01,SW,226,3.0,6.0,27,0.00,,,0.00,WeatherTracker,2013-05-20 21:51:00,
2013-05-20 14:56:00,71.8,35.1,30.00,SSW,195,3.0,6.0,26,0.00,,,0.00,WeatherTracker,2013-05-20 21:56:00,
2013-05-20 15:01:00,71.6,34.9,30.00,SSW,195,2.0,5.0,26,0.00,,,0.00,WeatherTracker,2013-05-20 22:01:00,
2013-05-20 15:06:00,72.9,36.9,30.00,SSW,195,3.0,5.0,27,0.00,,,0.00,WeatherTracker,2013-05-20 22:06:00,
2013-05-20 15:11:00,73.0,35.1,30.00,WNW,294,1.0,5.0,25,0.00,,,0.00,WeatherTracker,2013-05-20 22:11:00,
2013-05-20 15:16:00,73.4,35.4,30.00,NW,317,1.0,5.0,25,0.00,,,0.00,WeatherTracker,2013-05-20 22:16:00,
2013-05-20 15:21:00,73.4,37.4,29.99,WNW,294,0.0,7.0,27,0.00,,,0.00,WeatherTracker,2013-05-20 22:21:00,
2013-05-20 15:26:00,74.3,38.1,29.99,NW,310,0.0,7.0,27,0.00,,,0.00,WeatherTracker,2013-05-20 22:26:00,
2013-05-20 15:31:00,74.7,37.5,29.98,North,355,0.0,4.0,26,0.00,,,0.00,WeatherTracker,2013-05-20 22:31:00,
2013-05-20 15:37:00,74.9,34.6,29.98,NNE,13,2.0,5.0,23,0.00,,,0.00,WeatherTracker,2013-05-20 22:37:00,
2013-05-20 15:42:00,74.7,39.4,29.98,ENE,75,0.0,5.0,28,0.00,,,0.00,WeatherTracker,2013-05-20 22:42:00,
2013-05-20 15:47:00,74.2,36.1,29.98,ENE,74,1.0,4.0,25,0.00,,,0.00,WeatherTracker,2013-05-20 22:47:00,
2013-05-20 15:52:00,74.2,34.0,29.98,ENE,67,2.0,3.0,23,0.00,,,0.00,WeatherTracker,2013-05-20 22:52:00,
2013-05-20 15:57:00,75.3,34.9,29.97,NW,326,1.0,3.0,23,0.00,,,0.00,WeatherTracker,2013-05-20 22:57:00,
2013-05-20 16:02:00,76.3,36.8,29.97,NW,317,0.0,5.0,24,0.00,,,0.00,WeatherTracker,2013-05-20 23:02:00,
2013-05-20 16:07:00,76.7,35.0,29.97,NNW,338,0.0,5.0,22,0.00,,,0.00,WeatherTracker,2013-05-20 23:07:00,
2013-05-20 16:12:00,76.5,32.4,29.96,NNW,348,0.0,4.0,20,0.00,,,0.00,WeatherTracker,2013-05-20 23:12:00,
2013-05-20 16:17:00,76.2,33.4,29.96,NNW,348,0.0,4.0,21,0.00,,,0.00,WeatherTracker,2013-05-20 23:17:00,
2013-05-20 16:22:00,77.0,35.2,29.96,NNW,336,2.0,2.0,22,0.00,,,0.00,WeatherTracker,2013-05-20 23:22:00,
2013-05-20 16:27:00,77.2,33.0,29.95,NNW,334,0.0,2.0,20,0.00,,,0.00,WeatherTracker,2013-05-20 23:27:00,
2013-05-20 16:32:00,76.5,33.6,29.95,WSW,251,3.0,4.0,21,0.00,,,0.00,WeatherTracker,2013-05-20 23:32:00,
2013-05-20 16:37:00,75.3,32.7,29.95,West,276,0.0,4.0,21,0.00,,,0.00,WeatherTracker,2013-05-20 23:37:00,
2013-05-20 16:42:00,75.2,35.9,29.95,SW,225,2.0,4.0,24,0.00,,,0.00,WeatherTracker,2013-05-20 23:42:00,
2013-05-20 16:47:00,74.4,34.2,29.94,SW,233,3.0,6.0,23,0.00,,,0.00,WeatherTracker,2013-05-20 23:47:00,
2013-05-20 16:52:00,74.0,33.8,29.94,SSW,194,2.0,6.0,23,0.00,,,0.00,WeatherTracker,2013-05-20 23:52:00,
2013-05-20 16:57:00,74.6,36.4,29.94,WSW,251,0.0,5.0,25,0.00,,,0.00,WeatherTracker,2013-05-20 23:57:00,
2013-05-20 17:02:00,74.7,37.5,29.94,WSW,246,1.0,5.0,26,0.00,,,0.00,WeatherTracker,2013-05-21 00:02:00,
2013-05-20 17:07:00,75.0,34.7,29.94,WSW,246,2.0,5.0,23,0.00,,,0.00,WeatherTracker,2013-05-21 00:07:00,
2013-05-20 17:12:00,74.9,36.7,29.94,SW,215,0.0,4.0,25,0.00,,,0.00,WeatherTracker,2013-05-21 00:12:00,
2013-05-20 17:17:00,73.9,35.9,29.93,SSW,192,2.0,4.0,25,0.00,,,0.00,WeatherTracker,2013-05-21 00:17:00,
2013-05-20 17:22:00,73.5,35.5,29.93,SSW,192,0.0,4.0,25,0.00,,,0.00,WeatherTracker,2013-05-21 00:22:00,
2013-05-20 17:27:00,73.7,37.6,29.93,SSW,192,0.0,4.0,27,0.00,,,0.00,WeatherTracker,2013-05-21 00:27:00,
2013-05-20 17:32:00,73.9,38.7,29.93,South,186,0.0,4.0,28,0.00,,,0.00,WeatherTracker,2013-05-21 00:32:00,
2013-05-20 17:38:00,75.1,37.9,29.93,SSW,203,0.0,5.0,26,0.00,,,0.00,WeatherTracker,2013-05-21 00:38:00,
2013-05-20 17:43:00,75.7,38.4,29.93,SSW,202,0.0,5.0,26,0.00,,,0.00,WeatherTracker,2013-05-21 00:43:00,
2013-05-20 17:48:00,76.0,38.6,29.92,SSW,202,0.0,2.0,26,0.00,,,0.00,WeatherTracker,2013-05-21 00:48:00,
2013-05-20 17:53:00,76.1,36.7,29.92,SSW,202,0.0,2.0,24,0.00,,,0.00,WeatherTracker,2013-05-21 00:53:00,
2013-05-20 17:58:00,76.5,38.0,29.92,SSW,202,0.0,2.0,25,0.00,,,0.00,WeatherTracker,2013-05-21 00:58:00,
2013-05-20 18:03:00,77.0,39.5,29.92,SSW,202,0.0,1.0,26,0.00,,,0.00,WeatherTracker,2013-05-21 01:03:00,
2013-05-20 18:08:00,76.8,39.3,29.92,SSW,202,0.0,1.0,26,0.00,,,0.00,WeatherTracker,2013-05-21 01:08:00,
2013-05-20 18:13:00,77.0,39.5,29.92,SSW,202,0.0,1.0,26,0.00,,,0.00,WeatherTracker,2013-05-21 01:13:00,
2013-05-20 18:18:00,77.1,41.5,29.91,SSW,202,0.0,1.0,28,0.00,,,0.00,WeatherTracker,2013-05-21 01:18:00,
2013-05-20 18:23:00,77.0,39.5,29.91,SSW,202,0.0,1.0,26,0.00,,,0.00,WeatherTracker,2013-05-21 01:23:00,
2013-05-20 18:28:00,76.5,41.9,29.91,SSW,202,0.0,1.0,29,0.00,,,0.00,WeatherTracker,2013-05-21 01:28:00,
2013-05-20 18:33:00,76.2,40.7,29.91,SSW,201,0.0,1.0,28,0.00,,,0.00,WeatherTracker,2013-05-21 01:33:00,
2013-05-20 18:38:00,76.1,39.7,29.91,SSW,201,0.0,1.0,27,0.00,,,0.00,WeatherTracker,2013-05-21 01:38:00,
2013-05-20 18:43:00,76.0,42.3,29.91,SSW,201,0.0,1.0,30,0.00,,,0.00,WeatherTracker,2013-05-21 01:43:00,
2013-05-20 18:48:00,74.0,39.7,29.91,SSW,200,1.0,1.0,29,0.00,,,0.00,WeatherTracker,2013-05-21 01:48:00,
2013-05-20 18:53:00,73.2,43.9,29.91,SSW,200,0.0,3.0,35,0.00,,,0.00,WeatherTracker,2013-05-21 01:53:00,
2013-05-20 18:58:00,72.8,42.0,29.90,South,172,3.0,3.0,33,0.00,,,0.00,WeatherTracker,2013-05-21 01:58:00,
2013-05-20 19:03:00,71.7,40.3,29.90,SSE,150,0.0,4.0,32,0.00,,,0.00,WeatherTracker,2013-05-21 02:03:00,
2013-05-20 19:08:00,72.0,41.3,29.90,SSW,194,4.0,4.0,33,0.00,,,0.00,WeatherTracker,2013-05-21 02:08:00,
2013-05-20 19:13:00,71.6,40.2,29.90,SW,234,0.0,8.0,32,0.00,,,0.00,WeatherTracker,2013-05-21 02:13:00,
2013-05-20 19:18:00,70.3,40.6,29.90,SW,220,1.0,8.0,34,0.00,,,0.00,WeatherTracker,2013-05-21 02:18:00,
2013-05-20 19:23:00,69.3,39.0,29.90,South,171,0.0,7.0,33,0.00,,,0.00,WeatherTracker,2013-05-21 02:23:00,
2013-05-20 19:29:00,69.1,40.3,29.90,SW,230,4.0,6.0,35,0.00,,,0.00,WeatherTracker,2013-05-21 02:29:00,
2013-05-20 19:34:00,68.1,40.1,29.90,SE,136,1.0,5.0,36,0.00,,,0.00,WeatherTracker,2013-05-21 02:34:00,
2013-05-20 19:39:00,67.0,41.2,29.91,NW,321,0.0,5.0,39,0.00,,,0.00,WeatherTracker,2013-05-21 02:39:00,
2013-05-20 19:44:00,65.9,33.6,29.91,NW,321,0.0,6.0,30,0.00,,,0.00,WeatherTracker,2013-05-21 02:44:00,
2013-05-20 19:49:00,66.8,33.5,29.91,NW,321,0.0,6.0,29,0.00,,,0.00,WeatherTracker,2013-05-21 02:49:00,
2013-05-20 19:54:00,67.0,34.5,29.91,NW,321,0.0,0.0,30,0.00,,,0.00,WeatherTracker,2013-05-21 02:54:00,
2013-05-20 19:59:00,65.1,34.5,29.91,NW,321,0.0,0.0,32,0.00,,,0.00,WeatherTracker,2013-05-21 02:59:00,
2013-05-20 20:04:00,63.6,34.0,29.91,NW,321,0.0,0.0,33,0.00,,,0.00,WeatherTracker,2013-05-21 03:04:00,
2013-05-20 20:09:00,62.1,34.1,29.91,NW,321,0.0,0.0,35,0.00,,,0.00,WeatherTracker,2013-05-21 03:09:00,
2013-05-20 20:14:00,61.1,33.9,29.91,NW,321,0.0,0.0,36,0.00,,,0.00,WeatherTracker,2013-05-21 03:14:00,
2013-05-20 20:19:00,61.0,33.2,29.91,NW,321,0.0,0.0,35,0.00,,,0.00,WeatherTracker,2013-05-21 03:19:00,
2013-05-20 20:24:00,62.3,32.8,29.91,NW,321,0.0,0.0,33,0.00,,,0.00,WeatherTracker,2013-05-21 03:24:00,
2013-05-20 20:29:00,62.9,32.6,29.91,NW,317,0.0,0.0,32,0.00,,,0.00,WeatherTracker,2013-05-21 03:29:00,
2013-05-20 20:34:00,62.0,33.3,29.91,NW,317,0.0,1.0,34,0.00,,,0.00,WeatherTracker,2013-05-21 03:34:00,
2013-05-20 20:39:00,61.6,33.7,29.91,SW,236,0.0,1.0,35,0.00,,,0.00,WeatherTracker,2013-05-21 03:39:00,
2013-05-20 20:44:00,61.2,32.6,29.91,SW,236,0.0,0.0,34,0.00,,,0.00,WeatherTracker,2013-05-21 03:44:00,
2013-05-20 20:49:00,61.8,33.9,29.91,SW,236,0.0,0.0,35,0.00,,,0.00,WeatherTracker,2013-05-21 03:49:00,
2013-05-20 20:54:00,61.9,33.2,29.91,WSW,252,0.0,0.0,34,0.00,,,0.00,WeatherTracker,2013-05-21 03:54:00,
2013-05-20 20:59:00,61.6,33.0,29.91,NW,315,0.0,1.0,34,0.00,,,0.00,WeatherTracker,2013-05-21 03:59:00,
2013-05-20 21:01:00,61.5,32.9,29.91,NW,315,0.0,1.0,34,0.00,,,0.00,WeatherTracker,2013-05-21 04:01:00,
2013-05-20 21:06:00,61.3,32.7,29.91,NW,314,0.0,0.0,34,0.00,,,0.00,WeatherTracker,2013-05-21 04:06:00,
2013-05-20 21:12:00,61.2,34.0,29.91,NW,314,0.0,0.0,36,0.00,,,0.00,WeatherTracker,2013-05-21 04:12:00,
2013-05-20 21:17:00,61.3,34.1,29.91,NW,315,0.0,0.0,36,0.00,,,0.00,WeatherTracker,2013-05-21 04:17:00,
2013-05-20 21:22:00,60.8,34.4,29.92,NW,315,0.0,0.0,37,0.00,,,0.00,WeatherTracker,2013-05-21 04:22:00,
2013-05-20 21:27:00,60.6,35.5,29.92,NW,314,0.0,0.0,39,0.00,,,0.00,WeatherTracker,2013-05-21 04:27:00,
2013-05-20 21:32:00,61.0,35.9,29.92,NW,315,0.0,1.0,39,0.00,,,0.00,WeatherTracker,2013-05-21 04:32:00,
2013-05-20 21:37:00,60.9,35.1,29.92,NW,315,0.0,1.0,38,0.00,,,0.00,WeatherTracker,2013-05-21 04:37:00,
2013-05-20 21:42:00,60.5,34.8,29.92,NNW,331,0.0,1.0,38,0.00,,,0.00,WeatherTracker,2013-05-21 04:42:00,
2013-05-20 21:47:00,59.0,32.8,29.92,NNW,348,0.0,2.0,37,0.00,,,0.00,WeatherTracker,2013-05-21 04:47:00,
2013-05-20 21:52:00,58.8,32.6,29.93,North,360,0.0,2.0,37,0.00,,,0.00,WeatherTracker,2013-05-21 04:52:00,
2013-05-20 21:57:00,58.7,33.2,29.93,North,360,0.0,1.0,38,0.00,,,0.00,WeatherTracker,2013-05-21 04:57:00,
2013-05-20 22:02:00,58.9,33.3,29.93,North,360,0.0,1.0,38,0.00,,,0.00,WeatherTracker,2013-05-21 05:02:00,
2013-05-20 22:07:00,59.3,33.7,29.92,North,360,0.0,0.0,38,0.00,,,0.00,WeatherTracker,2013-05-21 05:07:00,
2013-05-20 22:12:00,59.8,34.1,29.93,North,360,0.0,1.0,38,0.00,,,0.00,WeatherTracker,2013-05-21 05:12:00,
2013-05-20 22:17:00,59.0,33.4,29.93,North,350,0.0,1.0,38,0.00,,,0.00,WeatherTracker,2013-05-21 05:17:00,
2013-05-20 22:22:00,59.0,33.4,29.93,NNW,346,0.0,0.0,38,0.00,,,0.00,WeatherTracker,2013-05-21 05:22:00,
2013-05-20 22:27:00,58.3,33.5,29.93,NNW,346,0.0,0.0,39,0.00,,,0.00,WeatherTracker,2013-05-21 05:27:00,
2013-05-20 22:32:00,58.8,33.3,29.93,NNW,344,0.0,1.0,38,0.00,,,0.00,WeatherTracker,2013-05-21 05:32:00,
2013-05-20 22:37:00,58.0,33.2,29.93,NNW,343,0.0,1.0,39,0.00,,,0.00,WeatherTracker,2013-05-21 05:37:00,
2013-05-20 22:42:00,58.4,32.9,29.93,NNW,344,0.0,0.0,38,0.00,,,0.00,WeatherTracker,2013-05-21 05:42:00,
2013-05-20 22:47:00,58.0,31.9,29.92,NNW,344,0.0,0.0,37,0.00,,,0.00,WeatherTracker,2013-05-21 05:47:00,
2013-05-20 22:52:00,56.8,32.1,29.92,NNW,336,0.0,0.0,39,0.00,,,0.00,WeatherTracker,2013-05-21 05:52:00,
2013-05-20 22:57:00,55.9,32.5,29.92,NNW,336,0.0,0.0,41,0.00,,,0.00,WeatherTracker,2013-05-21 05:57:00,
2013-05-20 23:02:00,55.2,33.1,29.92,NNW,336,0.0,0.0,43,0.00,,,0.00,WeatherTracker,2013-05-21 06:02:00,
2013-05-20 23:07:00,54.9,32.8,29.92,NNW,336,0.0,0.0,43,0.00,,,0.00,WeatherTracker,2013-05-21 06:07:00,
2013-05-20 23:12:00,55.7,33.6,29.92,NNW,336,0.0,0.0,43,0.00,,,0.00,WeatherTracker,2013-05-21 06:12:00,
2013-05-20 23:17:00,55.7,33.0,29.92,NNW,336,0.0,0.0,42,0.00,,,0.00,WeatherTracker,2013-05-21 06:17:00,
2013-05-20 23:22:00,54.8,32.7,29.92,NNW,336,0.0,0.0,43,0.00,,,0.00,WeatherTracker,2013-05-21 06:22:00,
2013-05-20 23:27:00,53.5,32.7,29.91,NNW,336,0.0,0.0,45,0.00,,,0.00,WeatherTracker,2013-05-21 06:27:00,
2013-05-20 23:33:00,53.2,33.0,29.91,NNW,336,0.0,0.0,46,0.00,,,0.00,WeatherTracker,2013-05-21 06:33:00,
2013-05-20 23:38:00,53.0,31.7,29.91,NNW,337,0.0,0.0,44,0.00,,,0.00,WeatherTracker,2013-05-21 06:38:00,
2013-05-20 23:43:00,52.8,32.1,29.91,NNW,333,0.0,0.0,45,0.00,,,0.00,WeatherTracker,2013-05-21 06:43:00,
2013-05-20 23:48:00,53.1,32.9,29.91,NNW,332,0.0,0.0,46,0.00,,,0.00,WeatherTracker,2013-05-21 06:48:00,
2013-05-20 23:53:00,52.9,32.1,29.91,NNW,332,0.0,0.0,45,0.00,,,0.00,WeatherTracker,2013-05-21 06:53:00,
2013-05-20 23:58:00,52.6,30.7,29.91,NNW,331,0.0,0.0,43,0.00,,,0.00,WeatherTracker,2013-05-21 06:58:00,